高雄國際航空站 - 塔台/地面席

METAR RCKH 200330Z 36009KT 310V030 9999 FEW015 SCT030 31/22 Q1003 NOSIG RMK A2964=

站台狀態:Online
最後更新:2019-09-20 11:45:01